createdAt,value
2019-05-07T00:01:15.873Z,73.10
2019-05-07T00:03:49.584Z,72.70
2019-05-07T00:06:22.905Z,72.60
2019-05-07T00:09:03.065Z,72.10
2019-05-07T00:11:33.215Z,73.20
2019-05-07T00:14:04.248Z,73.50
2019-05-07T00:16:42.190Z,75.30
2019-05-07T00:19:14.867Z,73.90
2019-05-07T00:21:46.750Z,73.20
2019-05-07T00:24:17.801Z,73.60
2019-05-07T00:26:53.195Z,76.30
2019-05-07T00:29:24.383Z,73.30
2019-05-07T00:31:58.675Z,73.40
2019-05-07T00:34:32.815Z,73.50
2019-05-07T00:37:06.988Z,73.50
2019-05-07T00:39:39.383Z,74.20
2019-05-07T00:42:12.666Z,75.70
2019-05-07T00:44:45.680Z,75.20
2019-05-07T00:47:18.670Z,74.80
2019-05-07T00:49:49.404Z,75.00
2019-05-07T00:52:22.566Z,75.40
2019-05-07T00:54:54.217Z,75.40
2019-05-07T00:57:29.132Z,74.50
2019-05-07T01:00:02.155Z,74.80
2019-05-07T01:02:33.307Z,74.20
2019-05-07T01:05:12.331Z,74.90
2019-05-07T01:07:43.238Z,74.40
2019-05-07T01:10:22.124Z,75.20
2019-05-07T01:12:53.168Z,75.20
2019-05-07T01:15:31.093Z,75.70
2019-05-07T01:17:59.326Z,74.60
2019-05-07T01:20:32.928Z,75.40
2019-05-07T01:23:04.288Z,74.30
2019-05-07T01:25:35.360Z,73.90
2019-05-07T01:28:08.539Z,73.80
2019-05-07T01:30:39.317Z,73.80
2019-05-07T01:33:12.251Z,73.20
2019-05-07T01:35:43.346Z,73.60
2019-05-07T01:38:16.016Z,74.30
2019-05-07T01:40:47.049Z,73.30
2019-05-07T01:43:18.262Z,74.20
2019-05-07T01:45:52.891Z,74.00
2019-05-07T01:48:23.476Z,73.50
2019-05-07T01:50:54.609Z,73.30
2019-05-07T01:53:26.559Z,72.40
2019-05-07T01:56:06.986Z,73.30
2019-05-07T01:58:43.893Z,73.20
2019-05-07T02:01:18.755Z,72.70
2019-05-07T02:03:52.667Z,73.10
2019-05-07T02:06:24.285Z,72.20
2019-05-07T02:08:58.715Z,71.70
2019-05-07T02:11:32.676Z,71.30
2019-05-07T02:14:05.038Z,70.80
2019-05-07T02:16:38.559Z,71.00
2019-05-07T02:19:12.624Z,70.80
2019-05-07T02:21:43.793Z,70.00
2019-05-07T02:24:15.798Z,70.50
2019-05-07T02:26:46.955Z,70.10
2019-05-07T02:29:18.416Z,69.70
2019-05-07T02:31:53.102Z,69.70
2019-05-07T02:34:23.633Z,69.50
2019-05-07T02:36:56.078Z,69.50
2019-05-07T02:39:33.258Z,68.80
2019-05-07T02:42:04.356Z,69.00
2019-05-07T02:44:39.575Z,68.50
2019-05-07T02:47:14.902Z,68.20
2019-05-07T02:49:53.565Z,67.80
2019-05-07T02:52:28.028Z,67.90
2019-05-07T02:55:03.523Z,67.60
2019-05-07T02:57:34.055Z,67.50
2019-05-07T03:00:08.314Z,67.20
2019-05-07T03:02:39.330Z,67.10
2019-05-07T03:05:13.664Z,66.60
2019-05-07T03:07:53.498Z,66.50
2019-05-07T03:10:25.055Z,66.60
2019-05-07T03:12:56.244Z,66.20
2019-05-07T03:15:27.703Z,65.90
2019-05-07T03:17:59.354Z,65.70
2019-05-07T03:20:43.049Z,63.70
2019-05-07T03:23:16.934Z,64.70
2019-05-07T03:25:49.662Z,64.70
2019-05-07T03:28:24.707Z,64.80
2019-05-07T03:30:58.725Z,64.60
2019-05-07T03:33:36.142Z,63.20
2019-05-07T03:36:07.502Z,63.40
2019-05-07T03:38:53.586Z,63.10
2019-05-07T03:41:25.702Z,63.30
2019-05-07T03:44:03.693Z,62.90
2019-05-07T03:46:33.944Z,62.00
2019-05-07T03:49:06.017Z,61.90
2019-05-07T03:51:37.061Z,61.80
2019-05-07T03:54:08.314Z,60.60
2019-05-07T03:56:43.602Z,61.80
2019-05-07T03:59:48.419Z,61.20
2019-05-07T04:02:23.414Z,61.10
2019-05-07T04:04:53.608Z,60.70
2019-05-07T04:07:33.891Z,61.30
2019-05-07T04:10:10.071Z,59.50
2019-05-07T04:12:39.370Z,60.10
2019-05-07T04:15:13.833Z,60.30
2019-05-07T04:17:53.615Z,59.40
2019-05-07T04:20:24.379Z,60.00
2019-05-07T04:23:00.081Z,58.40
2019-05-07T04:25:34.656Z,55.00
2019-05-07T04:28:07.377Z,59.30
2019-05-07T04:30:40.179Z,59.30
2019-05-07T04:33:13.832Z,59.00
2019-05-07T04:35:46.390Z,58.50
2019-05-07T04:38:17.509Z,57.80
2019-05-07T04:40:48.863Z,57.60
2019-05-07T04:43:29.934Z,56.60
2019-05-07T04:46:03.463Z,56.90
2019-05-07T04:48:43.535Z,55.90
2019-05-07T04:51:12.715Z,57.20
2019-05-07T04:53:44.126Z,57.50
2019-05-07T04:56:15.309Z,57.60
2019-05-07T04:58:56.896Z,56.20
2019-05-07T05:01:29.603Z,57.20
2019-05-07T05:04:21.115Z,57.10
2019-05-07T05:06:36.760Z,54.60
2019-05-07T05:09:08.489Z,54.20
2019-05-07T05:11:40.249Z,54.90
2019-05-07T05:14:13.686Z,54.80
2019-05-07T05:16:46.734Z,55.10
2019-05-07T05:19:19.179Z,55.00
2019-05-07T05:21:52.979Z,53.40
2019-05-07T05:24:25.460Z,53.80
2019-05-07T05:26:56.394Z,54.80
2019-05-07T05:29:32.157Z,54.80
2019-05-07T05:32:02.814Z,55.50
2019-05-07T05:34:35.207Z,55.50
2019-05-07T05:37:06.575Z,55.60
2019-05-07T05:39:38.927Z,56.00
2019-05-07T05:42:13.001Z,56.00
2019-05-07T05:44:45.424Z,56.30
2019-05-07T05:47:16.880Z,56.00
2019-05-07T05:49:49.345Z,56.00
2019-05-07T05:52:22.405Z,55.80
2019-05-07T05:54:57.665Z,56.60
2019-05-07T05:57:32.130Z,57.00
2019-05-07T06:00:04.240Z,56.20
2019-05-07T06:02:36.478Z,56.10
2019-05-07T06:05:09.451Z,55.30
2019-05-07T06:07:52.136Z,56.00
2019-05-07T06:10:38.721Z,55.80
2019-05-07T06:13:12.273Z,56.00
2019-05-07T06:15:43.598Z,56.10
2019-05-07T06:18:21.104Z,56.30
2019-05-07T06:20:52.238Z,55.80
2019-05-07T06:23:24.144Z,53.90
2019-05-07T06:25:59.062Z,53.70
2019-05-07T06:28:32.980Z,54.50
2019-05-07T06:31:06.989Z,54.20
2019-05-07T06:33:39.527Z,54.40
2019-05-07T06:36:13.226Z,53.90
2019-05-07T06:38:45.798Z,54.20
2019-05-07T06:41:24.095Z,52.60
2019-05-07T06:43:56.998Z,51.40
2019-05-07T06:46:35.156Z,51.70
2019-05-07T06:49:06.234Z,51.20
2019-05-07T06:51:38.822Z,52.30
2019-05-07T06:54:15.797Z,53.50
2019-05-07T06:56:52.802Z,53.60
2019-05-07T06:59:25.598Z,53.30
2019-05-07T07:01:59.310Z,51.60
2019-05-07T07:04:33.111Z,51.40
2019-05-07T07:07:05.752Z,52.50
2019-05-07T07:09:38.985Z,52.50
2019-05-07T07:12:17.798Z,50.50
2019-05-07T07:14:49.017Z,50.70
2019-05-07T07:17:22.284Z,49.50
2019-05-07T07:19:55.385Z,50.50
2019-05-07T07:22:33.845Z,51.30
2019-05-07T07:25:06.672Z,51.40
2019-05-07T07:27:37.056Z,50.70
2019-05-07T07:30:12.797Z,50.50
2019-05-07T07:32:47.139Z,51.20
2019-05-07T07:35:22.547Z,50.60
2019-05-07T07:37:53.971Z,49.20
2019-05-07T07:40:28.044Z,49.50
2019-05-07T07:42:59.315Z,48.10
2019-05-07T07:45:34.532Z,47.70
2019-05-07T07:48:05.355Z,50.60
2019-05-07T07:50:37.382Z,52.10
2019-05-07T07:53:08.614Z,50.90
2019-05-07T07:55:42.610Z,51.50
2019-05-07T07:58:14.974Z,51.30
2019-05-07T08:00:48.771Z,52.60
2019-05-07T08:03:22.996Z,53.60
2019-05-07T08:05:55.262Z,53.50
2019-05-07T08:08:28.918Z,54.20
2019-05-07T08:11:02.438Z,54.70
2019-05-07T08:13:33.645Z,54.90
2019-05-07T08:16:05.234Z,55.50
2019-05-07T08:18:36.386Z,55.90
2019-05-07T08:21:08.025Z,56.20
2019-05-07T08:23:42.268Z,56.80
2019-05-07T08:26:13.534Z,58.40
2019-05-07T08:28:44.821Z,58.60
2019-05-07T08:31:17.779Z,58.00
2019-05-07T08:33:53.016Z,58.50
2019-05-07T08:36:24.139Z,58.60
2019-05-07T08:38:56.633Z,58.80
2019-05-07T08:41:29.283Z,59.50
2019-05-07T08:44:11.763Z,60.60
2019-05-07T08:46:37.178Z,59.80
2019-05-07T08:49:11.964Z,59.80
2019-05-07T08:51:42.885Z,60.10
2019-05-07T08:54:15.015Z,59.80
2019-05-07T08:56:46.312Z,59.70
2019-05-07T08:59:17.688Z,60.00
2019-05-07T09:01:52.999Z,62.00
2019-05-07T09:04:24.223Z,59.80
2019-05-07T09:06:55.468Z,60.10
2019-05-07T09:09:27.794Z,60.10
2019-05-07T09:11:59.525Z,60.80
2019-05-07T09:14:32.340Z,60.40
2019-05-07T09:17:03.333Z,63.50
2019-05-07T09:19:47.142Z,61.60
2019-05-07T09:22:12.735Z,61.90
2019-05-07T09:24:43.490Z,62.30
2019-05-07T09:27:15.709Z,62.90
2019-05-07T09:29:48.056Z,62.00
2019-05-07T09:32:22.605Z,61.90
2019-05-07T09:34:53.942Z,61.20
2019-05-07T09:37:28.862Z,61.00
2019-05-07T09:40:02.565Z,60.90
2019-05-07T09:42:33.298Z,60.90
2019-05-07T09:45:05.520Z,60.70
2019-05-07T09:47:41.617Z,60.70
2019-05-07T09:50:12.436Z,61.50
2019-05-07T09:52:43.350Z,61.10
2019-05-07T09:55:17.517Z,60.80
2019-05-07T09:57:48.874Z,60.60
2019-05-07T10:00:22.621Z,60.50
2019-05-07T10:02:56.601Z,60.00
2019-05-07T10:05:32.189Z,60.30
2019-05-07T10:08:03.923Z,60.30
2019-05-07T10:10:35.004Z,60.40
2019-05-07T10:13:13.948Z,60.40
2019-05-07T10:15:45.895Z,61.10
2019-05-07T10:18:19.539Z,61.90
2019-05-07T10:20:52.149Z,61.50
2019-05-07T10:23:23.563Z,60.90
2019-05-07T10:25:55.383Z,61.00
2019-05-07T10:28:27.790Z,61.10
2019-05-07T10:30:58.619Z,61.40
2019-05-07T10:33:31.778Z,61.20
2019-05-07T10:36:03.765Z,60.90
2019-05-07T10:38:34.864Z,60.80
2019-05-07T10:41:06.058Z,60.60
2019-05-07T10:43:37.171Z,60.70
2019-05-07T10:46:09.820Z,60.50
2019-05-07T10:48:42.695Z,60.50
2019-05-07T10:51:13.746Z,60.40
2019-05-07T10:53:44.778Z,60.50
2019-05-07T10:56:15.935Z,60.30
2019-05-07T10:58:46.981Z,60.30
2019-05-07T11:01:22.294Z,60.40
2019-05-07T11:03:52.936Z,60.40
2019-05-07T11:06:24.067Z,60.50
2019-05-07T11:08:55.381Z,60.70
2019-05-07T11:11:26.295Z,60.50
2019-05-07T11:14:01.941Z,60.90
2019-05-07T11:16:35.184Z,61.40
2019-05-07T11:19:06.354Z,60.90
2019-05-07T11:21:37.330Z,60.80
2019-05-07T11:24:08.128Z,60.50
2019-05-07T11:26:39.132Z,60.70
2019-05-07T11:29:10.325Z,60.70
2019-05-07T11:31:42.303Z,60.90
2019-05-07T11:34:14.028Z,61.00
2019-05-07T11:36:45.444Z,61.90
2019-05-07T11:39:17.588Z,61.40
2019-05-07T11:41:51.800Z,61.60
2019-05-07T11:44:23.776Z,61.30
2019-05-07T11:46:57.299Z,61.30
2019-05-07T11:49:29.559Z,61.20
2019-05-07T11:52:01.728Z,62.10
2019-05-07T11:54:35.282Z,61.50
2019-05-07T11:57:06.297Z,62.10
2019-05-07T11:59:37.259Z,62.10
2019-05-07T12:02:08.515Z,62.80
2019-05-07T12:04:39.557Z,62.40
2019-05-07T12:07:11.933Z,62.10
2019-05-07T12:09:43.096Z,61.70
2019-05-07T12:12:14.322Z,62.00
2019-05-07T12:14:45.254Z,63.80
2019-05-07T12:17:16.365Z,63.40
2019-05-07T12:19:47.526Z,63.30
2019-05-07T12:22:20.436Z,62.90
2019-05-07T12:24:52.155Z,63.20
2019-05-07T12:27:24.016Z,64.50
2019-05-07T12:29:54.866Z,65.10
2019-05-07T12:32:25.639Z,64.40
2019-05-07T12:34:58.015Z,65.30
2019-05-07T12:37:32.011Z,63.90
2019-05-07T12:40:04.679Z,63.70
2019-05-07T12:42:35.839Z,63.40
2019-05-07T12:45:08.576Z,63.20
2019-05-07T12:47:39.707Z,63.80
2019-05-07T12:50:11.317Z,64.20
2019-05-07T12:52:46.278Z,64.60
2019-05-07T12:55:20.082Z,63.70
2019-05-07T12:57:51.919Z,63.40
2019-05-07T13:00:25.390Z,63.50
2019-05-07T13:02:58.125Z,63.60
2019-05-07T13:05:31.340Z,63.90
2019-05-07T13:08:03.260Z,63.70
2019-05-07T13:10:34.255Z,64.20
2019-05-07T13:13:05.539Z,63.90
2019-05-07T13:15:36.831Z,65.20
2019-05-07T13:18:08.017Z,64.50
2019-05-07T13:20:39.511Z,64.70
2019-05-07T13:23:11.999Z,64.40
2019-05-07T13:25:44.283Z,64.50
2019-05-07T13:28:14.837Z,64.70
2019-05-07T13:30:45.887Z,64.60
2019-05-07T13:33:18.743Z,65.00
2019-05-07T13:35:52.249Z,64.90
2019-05-07T13:38:24.306Z,64.70
2019-05-07T13:40:56.889Z,65.20
2019-05-07T13:43:29.611Z,64.60
2019-05-07T13:46:02.522Z,65.50
2019-05-07T13:48:33.632Z,65.30
2019-05-07T13:51:04.997Z,65.40
2019-05-07T13:53:36.008Z,65.10
2019-05-07T13:56:07.402Z,65.20
2019-05-07T13:58:40.337Z,64.70
2019-05-07T14:01:16.061Z,64.90
2019-05-07T14:03:46.955Z,64.40
2019-05-07T14:06:21.651Z,64.60
2019-05-07T14:08:52.603Z,65.00
2019-05-07T14:11:23.814Z,65.80
2019-05-07T14:13:54.779Z,65.40
2019-05-07T14:16:25.850Z,65.20
2019-05-07T14:18:56.618Z,65.50
2019-05-07T14:21:27.463Z,65.50
2019-05-07T14:23:58.520Z,65.50
2019-05-07T14:26:29.819Z,65.30
2019-05-07T14:29:01.913Z,65.20
2019-05-07T14:31:33.746Z,64.90
2019-05-07T14:34:06.106Z,65.30
2019-05-07T14:36:38.686Z,65.40
2019-05-07T14:39:10.503Z,65.20
2019-05-07T14:41:42.734Z,65.20
2019-05-07T14:44:15.841Z,65.50
2019-05-07T14:46:51.567Z,66.10
2019-05-07T14:49:22.524Z,66.60
2019-05-07T14:51:54.121Z,65.80
2019-05-07T14:54:25.400Z,65.80
2019-05-07T14:56:56.688Z,65.60
2019-05-07T14:59:27.601Z,65.40
2019-05-07T15:01:58.715Z,65.40
2019-05-07T15:04:29.882Z,65.10
2019-05-07T15:07:02.530Z,65.30
2019-05-07T15:09:33.738Z,65.60
2019-05-07T15:12:04.996Z,65.80
2019-05-07T15:14:35.881Z,65.60
2019-05-07T15:17:07.993Z,65.70
2019-05-07T15:19:39.314Z,66.00
2019-05-07T15:22:12.668Z,65.90
2019-05-07T15:24:47.198Z,65.40
2019-05-07T15:27:18.212Z,66.10
2019-05-07T15:29:49.272Z,65.90
2019-05-07T15:32:21.692Z,65.80
2019-05-07T15:34:52.785Z,66.50
2019-05-07T15:37:44.288Z,66.80
2019-05-07T15:40:16.566Z,67.20
2019-05-07T15:42:47.554Z,66.70
2019-05-07T15:45:18.568Z,66.40
2019-05-07T15:47:51.350Z,66.90
2019-05-07T15:50:23.657Z,67.10
2019-05-07T15:52:58.481Z,66.10
2019-05-07T15:55:28.401Z,66.10
2019-05-07T15:57:59.628Z,66.60
2019-05-07T16:00:33.536Z,67.40
2019-05-07T16:03:06.209Z,66.90
2019-05-07T16:05:37.290Z,67.50
2019-05-07T16:08:12.147Z,67.30
2019-05-07T16:10:42.739Z,66.90
2019-05-07T16:13:15.217Z,67.90
2019-05-07T16:15:46.180Z,68.10
2019-05-07T16:18:18.565Z,67.20
2019-05-07T16:20:49.479Z,67.40
2019-05-07T16:23:22.007Z,67.80
2019-05-07T16:25:52.919Z,67.60
2019-05-07T16:28:24.233Z,67.70
2019-05-07T16:30:55.444Z,68.00
2019-05-07T16:33:26.518Z,67.60
2019-05-07T16:35:57.635Z,67.80
2019-05-07T16:38:28.588Z,68.50
2019-05-07T16:40:59.794Z,69.20
2019-05-07T16:43:30.633Z,68.50
2019-05-07T16:46:02.424Z,68.20
2019-05-07T16:48:33.644Z,69.10
2019-05-07T16:51:04.594Z,68.40
2019-05-07T16:53:35.514Z,67.60
2019-05-07T16:56:06.534Z,68.30
2019-05-07T16:58:37.436Z,67.40
2019-05-07T17:01:09.949Z,68.50
2019-05-07T17:03:42.685Z,67.60
2019-05-07T17:06:13.961Z,67.60
2019-05-07T17:08:46.845Z,68.90
2019-05-07T17:11:17.951Z,69.00
2019-05-07T17:13:49.024Z,68.70
2019-05-07T17:16:20.029Z,69.50
2019-05-07T17:18:51.913Z,68.80
2019-05-07T17:21:24.190Z,69.30
2019-05-07T17:23:55.021Z,68.80
2019-05-07T17:26:26.095Z,69.20
2019-05-07T17:28:57.154Z,69.40
2019-05-07T17:31:29.329Z,68.90
2019-05-07T17:34:02.108Z,68.50
2019-05-07T17:36:33.121Z,69.20
2019-05-07T17:39:05.243Z,68.90
2019-05-07T17:41:37.391Z,69.80
2019-05-07T17:44:08.807Z,69.30
2019-05-07T17:46:39.705Z,68.70
2019-05-07T17:49:11.979Z,68.00
2019-05-07T17:51:44.465Z,69.20
2019-05-07T17:54:16.230Z,69.20
2019-05-07T17:56:47.390Z,70.00
2019-05-07T17:59:18.640Z,69.30
2019-05-07T18:01:52.897Z,69.60
2019-05-07T18:04:23.192Z,70.60
2019-05-07T18:06:54.461Z,69.40
2019-05-07T18:09:28.019Z,68.90
2019-05-07T18:11:59.227Z,69.30
2019-05-07T18:14:32.168Z,69.40
2019-05-07T18:17:04.597Z,69.20
2019-05-07T18:19:35.737Z,69.10
2019-05-07T18:22:06.915Z,69.80
2019-05-07T18:24:38.081Z,70.00
2019-05-07T18:27:12.587Z,70.40
2019-05-07T18:29:44.025Z,71.40
2019-05-07T18:32:15.209Z,70.30
2019-05-07T18:34:46.037Z,69.50
2019-05-07T18:37:19.467Z,70.90
2019-05-07T18:39:58.718Z,70.90
2019-05-07T18:42:30.059Z,71.30
2019-05-07T18:45:02.105Z,71.30
2019-05-07T18:47:33.261Z,71.00
2019-05-07T18:50:05.695Z,70.40
2019-05-07T18:52:36.716Z,71.10
2019-05-07T18:55:11.870Z,71.50
2019-05-07T18:57:42.525Z,71.10
2019-05-07T19:00:17.358Z,71.30
2019-05-07T19:02:48.416Z,72.00
2019-05-07T19:05:19.576Z,71.20
2019-05-07T19:08:03.829Z,71.70
2019-05-07T19:10:23.171Z,72.10
2019-05-07T19:12:55.025Z,72.10
2019-05-07T19:15:25.851Z,72.30
2019-05-07T19:17:56.891Z,71.80
2019-05-07T19:20:28.255Z,71.70
2019-05-07T19:22:59.308Z,71.50
2019-05-07T19:25:32.505Z,71.70
2019-05-07T19:28:02.816Z,71.60
2019-05-07T19:30:33.884Z,71.30
2019-05-07T19:33:05.642Z,70.20
2019-05-07T19:35:36.640Z,70.50
2019-05-07T19:38:07.655Z,70.70
2019-05-07T19:40:38.677Z,71.50
2019-05-07T19:43:09.362Z,70.80
2019-05-07T19:45:41.867Z,70.80
2019-05-07T19:48:13.264Z,69.90
2019-05-07T19:50:44.261Z,69.70
2019-05-07T19:53:20.461Z,70.30
2019-05-07T19:55:52.600Z,72.30
2019-05-07T19:58:24.503Z,71.80
2019-05-07T20:00:57.305Z,71.10
2019-05-07T20:03:28.328Z,72.00
2019-05-07T20:06:02.700Z,72.40
2019-05-07T20:08:33.760Z,72.80
2019-05-07T20:11:05.916Z,72.80
2019-05-07T20:13:36.969Z,72.30
2019-05-07T20:16:09.336Z,72.00
2019-05-07T20:18:42.845Z,72.10
2019-05-07T20:21:13.592Z,72.30
2019-05-07T20:23:44.633Z,72.60
2019-05-07T20:26:15.679Z,73.10
2019-05-07T20:28:46.564Z,73.60
2019-05-07T20:31:17.606Z,72.90
2019-05-07T20:33:48.591Z,73.30
2019-05-07T20:36:19.705Z,72.50
2019-05-07T20:38:52.199Z,73.40
2019-05-07T20:41:23.601Z,74.00
2019-05-07T20:43:54.494Z,75.00
2019-05-07T20:46:25.690Z,75.30
2019-05-07T20:48:56.771Z,74.20
2019-05-07T20:51:27.806Z,74.40
2019-05-07T20:53:58.755Z,75.20
2019-05-07T20:56:32.231Z,74.40
2019-05-07T20:59:03.508Z,75.00
2019-05-07T21:01:36.033Z,74.40
2019-05-07T21:04:07.274Z,74.10
2019-05-07T21:06:38.191Z,73.80
2019-05-07T21:09:12.418Z,74.60
2019-05-07T21:11:43.167Z,74.10
2019-05-07T21:14:14.411Z,73.20
2019-05-07T21:16:45.177Z,73.80
2019-05-07T21:19:16.516Z,73.80
2019-05-07T21:21:47.634Z,74.20
2019-05-07T21:24:18.673Z,73.80
2019-05-07T21:26:49.654Z,76.00
2019-05-07T21:29:20.704Z,74.70
2019-05-07T21:31:52.407Z,73.60
2019-05-07T21:34:23.650Z,73.20
2019-05-07T21:36:54.900Z,73.80
2019-05-07T21:39:25.919Z,73.30
2019-05-07T21:41:57.220Z,73.50
2019-05-07T21:44:28.174Z,73.90
2019-05-07T21:46:59.327Z,74.20
2019-05-07T21:49:32.162Z,74.60
2019-05-07T21:52:02.909Z,75.60
2019-05-07T21:54:35.530Z,76.30
2019-05-07T21:57:08.008Z,79.00
2019-05-07T21:59:40.628Z,76.40
2019-05-07T22:02:13.276Z,77.00
2019-05-07T22:04:44.152Z,77.00
2019-05-07T22:07:15.498Z,77.70
2019-05-07T22:09:46.529Z,76.90
2019-05-07T22:12:17.622Z,76.20
2019-05-07T22:14:48.505Z,77.70
2019-05-07T22:17:21.802Z,77.60
2019-05-07T22:19:52.466Z,77.40
2019-05-07T22:22:24.294Z,77.20
2019-05-07T22:24:55.490Z,77.10
2019-05-07T22:27:26.750Z,76.30
2019-05-07T22:29:58.592Z,76.50
2019-05-07T22:32:31.035Z,76.00
2019-05-07T22:35:03.817Z,75.70
2019-05-07T22:37:35.156Z,75.90
2019-05-07T22:40:08.244Z,75.50
2019-05-07T22:42:39.227Z,75.30
2019-05-07T22:45:12.186Z,76.00
2019-05-07T22:47:42.946Z,75.00
2019-05-07T22:50:14.526Z,76.00
2019-05-07T22:52:45.292Z,76.80
2019-05-07T22:55:17.520Z,76.50
2019-05-07T22:57:49.558Z,77.50
2019-05-07T23:00:22.657Z,81.00
2019-05-07T23:02:54.030Z,78.90
2019-05-07T23:05:27.784Z,81.00
2019-05-07T23:07:58.633Z,80.60
2019-05-07T23:10:29.673Z,79.10
2019-05-07T23:13:02.282Z,78.30
2019-05-07T23:15:33.404Z,77.60
2019-05-07T23:18:04.563Z,78.10
2019-05-07T23:20:35.901Z,80.10
2019-05-07T23:23:06.736Z,81.10
2019-05-07T23:25:37.928Z,78.00
2019-05-07T23:28:09.141Z,80.30
2019-05-07T23:30:42.122Z,78.90
2019-05-07T23:33:16.712Z,78.90
2019-05-07T23:35:47.958Z,79.00
2019-05-07T23:38:22.565Z,78.00
2019-05-07T23:40:59.009Z,80.60
2019-05-07T23:43:31.637Z,78.00
2019-05-07T23:46:08.324Z,78.50
2019-05-07T23:48:39.155Z,79.40
2019-05-07T23:51:10.074Z,80.10
2019-05-07T23:53:44.137Z,78.10
2019-05-07T23:56:15.078Z,78.10
2019-05-07T23:58:46.073Z,78.10
